sensor_id;sensor_type;location;lat;lon;timestamp;temperature;humidity
25963;DHT22;13760;52.588;13.406;2023-04-06T00:00:09;4.40;99.90
25963;DHT22;13760;52.588;13.406;2023-04-06T00:02:36;4.40;99.90
25963;DHT22;13760;52.588;13.406;2023-04-06T00:05:01;4.40;99.90
25963;DHT22;13760;52.588;13.406;2023-04-06T00:07:27;4.40;99.90
25963;DHT22;13760;52.588;13.406;2023-04-06T00:09:54;4.40;99.90
25963;DHT22;13760;52.588;13.406;2023-04-06T00:12:20;4.40;99.90
25963;DHT22;13760;52.588;13.406;2023-04-06T00:14:46;4.40;99.90
25963;DHT22;13760;52.588;13.406;2023-04-06T00:17:11;4.40;99.90
25963;DHT22;13760;52.588;13.406;2023-04-06T00:19:37;4.30;99.90
25963;DHT22;13760;52.588;13.406;2023-04-06T00:22:02;4.30;99.90
25963;DHT22;13760;52.588;13.406;2023-04-06T00:24:28;4.30;99.90
25963;DHT22;13760;52.588;13.406;2023-04-06T00:26:53;4.20;99.90
25963;DHT22;13760;52.588;13.406;2023-04-06T00:29:19;4.20;99.90
25963;DHT22;13760;52.588;13.406;2023-04-06T00:31:45;4.10;99.90
25963;DHT22;13760;52.588;13.406;2023-04-06T00:34:10;4.10;99.90
25963;DHT22;13760;52.588;13.406;2023-04-06T00:36:36;4.00;99.90
25963;DHT22;13760;52.588;13.406;2023-04-06T00:39:01;4.00;99.90
25963;DHT22;13760;52.588;13.406;2023-04-06T00:41:27;4.00;99.90
25963;DHT22;13760;52.588;13.406;2023-04-06T00:43:53;4.00;99.90
25963;DHT22;13760;52.588;13.406;2023-04-06T00:46:19;4.00;99.90
25963;DHT22;13760;52.588;13.406;2023-04-06T00:48:45;4.00;99.90
25963;DHT22;13760;52.588;13.406;2023-04-06T00:51:11;4.00;99.90
25963;DHT22;13760;52.588;13.406;2023-04-06T00:53:36;4.00;99.90
25963;DHT22;13760;52.588;13.406;2023-04-06T00:56:02;3.90;99.90
25963;DHT22;13760;52.588;13.406;2023-04-06T00:58:27;3.90;99.90
25963;DHT22;13760;52.588;13.406;2023-04-06T01:00:53;3.90;99.90
25963;DHT22;13760;52.588;13.406;2023-04-06T01:03:19;3.80;99.90
25963;DHT22;13760;52.588;13.406;2023-04-06T01:05:45;3.80;99.90
25963;DHT22;13760;52.588;13.406;2023-04-06T01:08:10;3.80;99.90
25963;DHT22;13760;52.588;13.406;2023-04-06T01:10:36;3.70;99.90
25963;DHT22;13760;52.588;13.406;2023-04-06T01:13:02;3.70;99.90
25963;DHT22;13760;52.588;13.406;2023-04-06T01:15:28;3.70;99.90
25963;DHT22;13760;52.588;13.406;2023-04-06T01:17:54;3.70;99.90
25963;DHT22;13760;52.588;13.406;2023-04-06T01:20:20;3.60;99.90
25963;DHT22;13760;52.588;13.406;2023-04-06T01:22:46;3.60;99.90
25963;DHT22;13760;52.588;13.406;2023-04-06T01:25:11;3.60;99.90
25963;DHT22;13760;52.588;13.406;2023-04-06T01:27:37;3.50;99.90
25963;DHT22;13760;52.588;13.406;2023-04-06T01:30:02;3.50;99.90
25963;DHT22;13760;52.588;13.406;2023-04-06T01:32:28;3.50;99.90
25963;DHT22;13760;52.588;13.406;2023-04-06T01:34:54;3.40;99.90
25963;DHT22;13760;52.588;13.406;2023-04-06T01:37:20;3.40;99.90
25963;DHT22;13760;52.588;13.406;2023-04-06T01:39:46;3.40;99.90
25963;DHT22;13760;52.588;13.406;2023-04-06T01:42:11;3.40;99.90
25963;DHT22;13760;52.588;13.406;2023-04-06T01:44:37;3.30;99.90
25963;DHT22;13760;52.588;13.406;2023-04-06T01:47:05;3.30;99.90
25963;DHT22;13760;52.588;13.406;2023-04-06T01:49:30;3.30;99.90
25963;DHT22;13760;52.588;13.406;2023-04-06T01:51:56;3.30;99.90
25963;DHT22;13760;52.588;13.406;2023-04-06T01:54:21;3.30;99.90
25963;DHT22;13760;52.588;13.406;2023-04-06T01:56:47;3.20;99.90
25963;DHT22;13760;52.588;13.406;2023-04-06T01:59:15;3.20;99.90
25963;DHT22;13760;52.588;13.406;2023-04-06T02:01:40;3.20;99.90
25963;DHT22;13760;52.588;13.406;2023-04-06T02:04:06;3.20;99.90
25963;DHT22;13760;52.588;13.406;2023-04-06T02:06:32;3.20;99.90
25963;DHT22;13760;52.588;13.406;2023-04-06T02:08:57;3.10;99.90
25963;DHT22;13760;52.588;13.406;2023-04-06T02:11:23;3.10;99.90
25963;DHT22;13760;52.588;13.406;2023-04-06T02:13:48;3.10;99.90
25963;DHT22;13760;52.588;13.406;2023-04-06T02:16:14;3.10;99.90
25963;DHT22;13760;52.588;13.406;2023-04-06T02:18:41;3.10;99.90
25963;DHT22;13760;52.588;13.406;2023-04-06T02:21:06;3.10;99.90
25963;DHT22;13760;52.588;13.406;2023-04-06T02:23:32;3.10;99.90
25963;DHT22;13760;52.588;13.406;2023-04-06T02:25:57;3.10;99.90
25963;DHT22;13760;52.588;13.406;2023-04-06T02:28:23;3.10;99.90
25963;DHT22;13760;52.588;13.406;2023-04-06T02:30:48;3.10;99.90
25963;DHT22;13760;52.588;13.406;2023-04-06T02:33:14;3.10;99.90
25963;DHT22;13760;52.588;13.406;2023-04-06T02:35:40;3.10;99.90
25963;DHT22;13760;52.588;13.406;2023-04-06T02:38:06;3.00;99.90
25963;DHT22;13760;52.588;13.406;2023-04-06T02:40:31;3.00;99.90
25963;DHT22;13760;52.588;13.406;2023-04-06T02:42:57;3.00;99.90
25963;DHT22;13760;52.588;13.406;2023-04-06T02:45:22;3.00;99.90
25963;DHT22;13760;52.588;13.406;2023-04-06T02:47:48;2.90;99.90
25963;DHT22;13760;52.588;13.406;2023-04-06T02:50:13;2.90;99.90
25963;DHT22;13760;52.588;13.406;2023-04-06T02:52:39;2.80;99.90
25963;DHT22;13760;52.588;13.406;2023-04-06T02:55:05;2.80;99.90
25963;DHT22;13760;52.588;13.406;2023-04-06T02:57:32;2.70;99.90
25963;DHT22;13760;52.588;13.406;2023-04-06T03:00:11;2.70;99.90
25963;DHT22;13760;52.588;13.406;2023-04-06T03:02:37;2.60;99.90
25963;DHT22;13760;52.588;13.406;2023-04-06T03:05:11;2.60;99.90
25963;DHT22;13760;52.588;13.406;2023-04-06T03:07:50;2.60;99.90
25963;DHT22;13760;52.588;13.406;2023-04-06T03:10:34;2.60;99.90
25963;DHT22;13760;52.588;13.406;2023-04-06T03:13:00;2.50;99.90
25963;DHT22;13760;52.588;13.406;2023-04-06T03:15:25;2.40;99.90
25963;DHT22;13760;52.588;13.406;2023-04-06T03:17:51;2.40;99.90
25963;DHT22;13760;52.588;13.406;2023-04-06T03:20:16;2.30;99.90
25963;DHT22;13760;52.588;13.406;2023-04-06T03:22:42;2.30;99.90
25963;DHT22;13760;52.588;13.406;2023-04-06T03:25:08;2.20;99.90
25963;DHT22;13760;52.588;13.406;2023-04-06T03:27:33;2.20;99.90
25963;DHT22;13760;52.588;13.406;2023-04-06T03:29:59;2.10;99.90
25963;DHT22;13760;52.588;13.406;2023-04-06T03:32:24;2.10;99.90
25963;DHT22;13760;52.588;13.406;2023-04-06T03:34:50;2.00;99.90
25963;DHT22;13760;52.588;13.406;2023-04-06T03:37:15;2.00;99.90
25963;DHT22;13760;52.588;13.406;2023-04-06T03:39:41;1.90;99.90
25963;DHT22;13760;52.588;13.406;2023-04-06T03:42:06;1.80;99.90
25963;DHT22;13760;52.588;13.406;2023-04-06T03:44:32;1.80;99.90
25963;DHT22;13760;52.588;13.406;2023-04-06T03:46:57;1.80;99.90
25963;DHT22;13760;52.588;13.406;2023-04-06T03:49:23;1.70;99.90
25963;DHT22;13760;52.588;13.406;2023-04-06T03:51:49;1.60;99.90
25963;DHT22;13760;52.588;13.406;2023-04-06T03:54:15;1.60;99.90
25963;DHT22;13760;52.588;13.406;2023-04-06T03:56:40;1.60;99.90
25963;DHT22;13760;52.588;13.406;2023-04-06T03:59:06;1.50;99.90
25963;DHT22;13760;52.588;13.406;2023-04-06T04:01:34;1.50;99.90
25963;DHT22;13760;52.588;13.406;2023-04-06T04:04:00;1.40;99.90
25963;DHT22;13760;52.588;13.406;2023-04-06T04:06:25;1.40;99.90
25963;DHT22;13760;52.588;13.406;2023-04-06T04:08:51;1.40;99.90
25963;DHT22;13760;52.588;13.406;2023-04-06T04:11:16;1.30;99.90
25963;DHT22;13760;52.588;13.406;2023-04-06T04:13:42;1.30;99.90
25963;DHT22;13760;52.588;13.406;2023-04-06T04:16:08;1.30;99.90
25963;DHT22;13760;52.588;13.406;2023-04-06T04:18:33;1.20;99.90
25963;DHT22;13760;52.588;13.406;2023-04-06T04:20:59;1.20;99.90
25963;DHT22;13760;52.588;13.406;2023-04-06T04:23:24;1.10;99.90
25963;DHT22;13760;52.588;13.406;2023-04-06T04:25:50;1.10;99.90
25963;DHT22;13760;52.588;13.406;2023-04-06T04:28:16;1.10;99.90
25963;DHT22;13760;52.588;13.406;2023-04-06T04:30:42;1.00;99.90
25963;DHT22;13760;52.588;13.406;2023-04-06T04:33:07;1.00;99.90
25963;DHT22;13760;52.588;13.406;2023-04-06T04:35:33;1.00;99.90
25963;DHT22;13760;52.588;13.406;2023-04-06T04:37:58;1.00;99.90
25963;DHT22;13760;52.588;13.406;2023-04-06T04:40:24;1.00;99.90
25963;DHT22;13760;52.588;13.406;2023-04-06T04:42:50;0.90;99.90
25963;DHT22;13760;52.588;13.406;2023-04-06T04:45:16;0.90;99.90
25963;DHT22;13760;52.588;13.406;2023-04-06T04:47:42;0.90;99.90
25963;DHT22;13760;52.588;13.406;2023-04-06T04:50:08;0.90;99.90
25963;DHT22;13760;52.588;13.406;2023-04-06T04:52:33;0.90;99.90
25963;DHT22;13760;52.588;13.406;2023-04-06T04:54:59;0.90;99.90
25963;DHT22;13760;52.588;13.406;2023-04-06T04:57:24;0.90;99.90
25963;DHT22;13760;52.588;13.406;2023-04-06T04:59:50;0.90;99.90
25963;DHT22;13760;52.588;13.406;2023-04-06T05:02:16;0.90;99.90
25963;DHT22;13760;52.588;13.406;2023-04-06T05:04:42;0.90;99.90
25963;DHT22;13760;52.588;13.406;2023-04-06T05:07:08;0.90;99.90
25963;DHT22;13760;52.588;13.406;2023-04-06T05:09:34;0.90;99.90
25963;DHT22;13760;52.588;13.406;2023-04-06T05:12:00;1.00;99.90
25963;DHT22;13760;52.588;13.406;2023-04-06T05:14:27;1.00;99.90
25963;DHT22;13760;52.588;13.406;2023-04-06T05:16:53;1.00;99.90
25963;DHT22;13760;52.588;13.406;2023-04-06T05:19:19;1.00;99.90
25963;DHT22;13760;52.588;13.406;2023-04-06T05:21:45;1.00;99.90
25963;DHT22;13760;52.588;13.406;2023-04-06T05:24:11;1.10;99.90
25963;DHT22;13760;52.588;13.406;2023-04-06T05:26:36;1.10;99.90
25963;DHT22;13760;52.588;13.406;2023-04-06T05:29:02;1.20;99.90
25963;DHT22;13760;52.588;13.406;2023-04-06T05:31:29;1.20;99.90
25963;DHT22;13760;52.588;13.406;2023-04-06T05:33:55;1.30;99.90
25963;DHT22;13760;52.588;13.406;2023-04-06T05:36:24;1.30;99.90
25963;DHT22;13760;52.588;13.406;2023-04-06T05:38:56;1.30;99.90
25963;DHT22;13760;52.588;13.406;2023-04-06T05:41:24;1.40;99.90
25963;DHT22;13760;52.588;13.406;2023-04-06T05:47:08;1.50;99.90
25963;DHT22;13760;52.588;13.406;2023-04-06T05:49:34;1.60;99.90
25963;DHT22;13760;52.588;13.406;2023-04-06T05:52:03;1.60;99.90
25963;DHT22;13760;52.588;13.406;2023-04-06T05:54:29;1.70;99.90
25963;DHT22;13760;52.588;13.406;2023-04-06T05:56:55;1.70;99.90
25963;DHT22;13760;52.588;13.406;2023-04-06T05:59:30;1.80;99.90
25963;DHT22;13760;52.588;13.406;2023-04-06T06:01:55;1.90;99.90
25963;DHT22;13760;52.588;13.406;2023-04-06T06:04:30;2.00;99.90
25963;DHT22;13760;52.588;13.406;2023-04-06T06:10:08;2.10;99.90
25963;DHT22;13760;52.588;13.406;2023-04-06T06:12:34;2.20;99.90
25963;DHT22;13760;52.588;13.406;2023-04-06T06:15:00;2.30;99.90
25963;DHT22;13760;52.588;13.406;2023-04-06T06:17:32;2.40;99.90
25963;DHT22;13760;52.588;13.406;2023-04-06T06:20:06;2.60;99.90
25963;DHT22;13760;52.588;13.406;2023-04-06T06:22:34;2.70;99.90
25963;DHT22;13760;52.588;13.406;2023-04-06T06:25:00;2.80;99.90
25963;DHT22;13760;52.588;13.406;2023-04-06T06:27:26;2.90;99.90
25963;DHT22;13760;52.588;13.406;2023-04-06T06:29:53;3.00;99.90
25963;DHT22;13760;52.588;13.406;2023-04-06T06:32:22;3.10;99.90
25963;DHT22;13760;52.588;13.406;2023-04-06T06:34:47;3.20;99.90
25963;DHT22;13760;52.588;13.406;2023-04-06T06:37:13;3.30;99.90
25963;DHT22;13760;52.588;13.406;2023-04-06T06:39:39;3.40;99.90
25963;DHT22;13760;52.588;13.406;2023-04-06T06:42:31;3.50;99.90
25963;DHT22;13760;52.588;13.406;2023-04-06T06:45:26;3.70;99.90
25963;DHT22;13760;52.588;13.406;2023-04-06T06:47:55;3.80;99.90
25963;DHT22;13760;52.588;13.406;2023-04-06T06:50:21;3.90;99.90
25963;DHT22;13760;52.588;13.406;2023-04-06T06:52:47;4.00;99.90
25963;DHT22;13760;52.588;13.406;2023-04-06T06:55:12;4.10;99.90
25963;DHT22;13760;52.588;13.406;2023-04-06T06:57:38;4.20;99.90
25963;DHT22;13760;52.588;13.406;2023-04-06T07:00:05;4.30;99.90
25963;DHT22;13760;52.588;13.406;2023-04-06T07:02:42;4.40;99.90
25963;DHT22;13760;52.588;13.406;2023-04-06T07:05:11;4.60;99.90
25963;DHT22;13760;52.588;13.406;2023-04-06T07:07:37;4.70;99.90
25963;DHT22;13760;52.588;13.406;2023-04-06T07:10:03;4.90;99.90
25963;DHT22;13760;52.588;13.406;2023-04-06T07:12:28;5.10;99.90
25963;DHT22;13760;52.588;13.406;2023-04-06T07:14:54;5.30;99.90
25963;DHT22;13760;52.588;13.406;2023-04-06T07:17:31;5.40;99.90
25963;DHT22;13760;52.588;13.406;2023-04-06T07:20:00;5.60;99.90
25963;DHT22;13760;52.588;13.406;2023-04-06T07:26:17;5.80;99.90
25963;DHT22;13760;52.588;13.406;2023-04-06T07:28:42;6.00;99.90
25963;DHT22;13760;52.588;13.406;2023-04-06T07:31:11;6.10;99.90
25963;DHT22;13760;52.588;13.406;2023-04-06T07:33:37;6.30;99.90
25963;DHT22;13760;52.588;13.406;2023-04-06T07:36:03;6.40;99.90
25963;DHT22;13760;52.588;13.406;2023-04-06T07:38:29;6.60;99.90
25963;DHT22;13760;52.588;13.406;2023-04-06T07:40:54;6.90;99.90
25963;DHT22;13760;52.588;13.406;2023-04-06T07:43:38;7.10;99.90
25963;DHT22;13760;52.588;13.406;2023-04-06T07:46:04;7.40;99.90
25963;DHT22;13760;52.588;13.406;2023-04-06T07:48:30;7.50;99.90
25963;DHT22;13760;52.588;13.406;2023-04-06T07:51:03;7.80;99.90
25963;DHT22;13760;52.588;13.406;2023-04-06T07:53:29;8.00;99.90
25963;DHT22;13760;52.588;13.406;2023-04-06T07:55:55;8.20;99.90
25963;DHT22;13760;52.588;13.406;2023-04-06T07:58:21;8.40;99.90
25963;DHT22;13760;52.588;13.406;2023-04-06T08:00:47;8.60;99.90
25963;DHT22;13760;52.588;13.406;2023-04-06T08:03:12;8.70;99.90
25963;DHT22;13760;52.588;13.406;2023-04-06T08:05:38;8.90;99.90
25963;DHT22;13760;52.588;13.406;2023-04-06T08:08:04;9.00;99.90
25963;DHT22;13760;52.588;13.406;2023-04-06T08:10:29;9.20;99.90
25963;DHT22;13760;52.588;13.406;2023-04-06T08:12:55;9.30;99.90
25963;DHT22;13760;52.588;13.406;2023-04-06T08:15:21;9.40;99.90
25963;DHT22;13760;52.588;13.406;2023-04-06T08:17:46;9.50;98.80
25963;DHT22;13760;52.588;13.406;2023-04-06T08:20:12;9.60;98.50
25963;DHT22;13760;52.588;13.406;2023-04-06T08:22:38;9.70;97.50
25963;DHT22;13760;52.588;13.406;2023-04-06T08:25:04;9.80;95.70
25963;DHT22;13760;52.588;13.406;2023-04-06T08:27:30;9.90;94.20
25963;DHT22;13760;52.588;13.406;2023-04-06T08:29:55;9.70;93.20
25963;DHT22;13760;52.588;13.406;2023-04-06T08:32:21;9.70;93.30
25963;DHT22;13760;52.588;13.406;2023-04-06T08:34:47;9.80;93.50
25963;DHT22;13760;52.588;13.406;2023-04-06T08:37:12;9.70;92.20
25963;DHT22;13760;52.588;13.406;2023-04-06T08:39:38;9.70;92.00
25963;DHT22;13760;52.588;13.406;2023-04-06T08:42:04;9.90;92.00
25963;DHT22;13760;52.588;13.406;2023-04-06T08:44:32;10.00;91.20
25963;DHT22;13760;52.588;13.406;2023-04-06T08:46:59;10.00;90.10
25963;DHT22;13760;52.588;13.406;2023-04-06T08:49:25;10.10;91.20
25963;DHT22;13760;52.588;13.406;2023-04-06T08:51:51;10.20;90.90
25963;DHT22;13760;52.588;13.406;2023-04-06T08:54:17;10.30;90.20
25963;DHT22;13760;52.588;13.406;2023-04-06T08:56:43;10.50;88.40
25963;DHT22;13760;52.588;13.406;2023-04-06T08:59:09;10.50;86.40
25963;DHT22;13760;52.588;13.406;2023-04-06T09:01:40;10.60;84.90
25963;DHT22;13760;52.588;13.406;2023-04-06T09:04:07;10.60;83.40
25963;DHT22;13760;52.588;13.406;2023-04-06T09:06:37;10.60;81.60
25963;DHT22;13760;52.588;13.406;2023-04-06T09:09:02;10.60;82.60
25963;DHT22;13760;52.588;13.406;2023-04-06T09:11:28;10.70;82.40
25963;DHT22;13760;52.588;13.406;2023-04-06T09:13:56;10.80;80.90
25963;DHT22;13760;52.588;13.406;2023-04-06T09:16:22;10.90;81.50
25963;DHT22;13760;52.588;13.406;2023-04-06T09:18:49;11.00;81.80
25963;DHT22;13760;52.588;13.406;2023-04-06T09:21:18;11.10;81.40
25963;DHT22;13760;52.588;13.406;2023-04-06T09:23:44;11.30;79.60
25963;DHT22;13760;52.588;13.406;2023-04-06T09:26:12;11.40;79.00
25963;DHT22;13760;52.588;13.406;2023-04-06T09:28:48;11.40;76.90
25963;DHT22;13760;52.588;13.406;2023-04-06T09:31:16;11.50;74.80
25963;DHT22;13760;52.588;13.406;2023-04-06T09:33:44;11.60;75.70
25963;DHT22;13760;52.588;13.406;2023-04-06T09:36:11;11.70;74.90
25963;DHT22;13760;52.588;13.406;2023-04-06T09:38:38;11.80;75.90
25963;DHT22;13760;52.588;13.406;2023-04-06T09:41:04;11.80;69.30
25963;DHT22;13760;52.588;13.406;2023-04-06T09:43:30;11.90;71.70
25963;DHT22;13760;52.588;13.406;2023-04-06T09:45:56;11.90;70.20
25963;DHT22;13760;52.588;13.406;2023-04-06T09:48:24;12.10;71.30
25963;DHT22;13760;52.588;13.406;2023-04-06T09:50:55;12.10;68.10
25963;DHT22;13760;52.588;13.406;2023-04-06T09:53:25;12.20;67.00
25963;DHT22;13760;52.588;13.406;2023-04-06T09:55:55;12.20;65.90
25963;DHT22;13760;52.588;13.406;2023-04-06T09:58:23;12.30;66.70
25963;DHT22;13760;52.588;13.406;2023-04-06T10:01:05;12.40;67.20
25963;DHT22;13760;52.588;13.406;2023-04-06T10:06:18;12.50;65.00
25963;DHT22;13760;52.588;13.406;2023-04-06T10:08:48;12.50;64.00
25963;DHT22;13760;52.588;13.406;2023-04-06T10:11:15;12.60;65.70
25963;DHT22;13760;52.588;13.406;2023-04-06T10:13:41;12.80;65.30
25963;DHT22;13760;52.588;13.406;2023-04-06T10:16:08;12.70;63.00
25963;DHT22;13760;52.588;13.406;2023-04-06T10:18:38;12.50;65.50
25963;DHT22;13760;52.588;13.406;2023-04-06T10:21:35;12.20;63.20
25963;DHT22;13760;52.588;13.406;2023-04-06T10:24:12;11.80;64.10
25963;DHT22;13760;52.588;13.406;2023-04-06T10:26:38;11.60;67.00
25963;DHT22;13760;52.588;13.406;2023-04-06T10:29:05;11.90;67.70
25963;DHT22;13760;52.588;13.406;2023-04-06T10:31:31;12.30;65.90
25963;DHT22;13760;52.588;13.406;2023-04-06T10:34:01;12.70;61.80
25963;DHT22;13760;52.588;13.406;2023-04-06T10:39:54;13.30;60.10
25963;DHT22;13760;52.588;13.406;2023-04-06T10:42:24;13.40;56.40
25963;DHT22;13760;52.588;13.406;2023-04-06T10:44:50;13.30;57.80
25963;DHT22;13760;52.588;13.406;2023-04-06T10:47:17;13.40;56.80
25963;DHT22;13760;52.588;13.406;2023-04-06T10:49:45;13.40;55.60
25963;DHT22;13760;52.588;13.406;2023-04-06T10:52:11;13.50;56.60
25963;DHT22;13760;52.588;13.406;2023-04-06T10:54:41;13.60;56.00
25963;DHT22;13760;52.588;13.406;2023-04-06T10:57:08;13.70;56.90
25963;DHT22;13760;52.588;13.406;2023-04-06T10:59:36;13.90;55.70
25963;DHT22;13760;52.588;13.406;2023-04-06T11:02:03;14.00;55.50
25963;DHT22;13760;52.588;13.406;2023-04-06T11:04:34;13.70;54.80
25963;DHT22;13760;52.588;13.406;2023-04-06T11:07:00;13.40;53.80
25963;DHT22;13760;52.588;13.406;2023-04-06T11:10:02;13.10;55.50
25963;DHT22;13760;52.588;13.406;2023-04-06T11:12:28;12.80;55.50
25963;DHT22;13760;52.588;13.406;2023-04-06T11:21:47;13.10;55.10
25963;DHT22;13760;52.588;13.406;2023-04-06T11:24:18;13.50;55.80
25963;DHT22;13760;52.588;13.406;2023-04-06T11:29:16;13.60;53.30
25963;DHT22;13760;52.588;13.406;2023-04-06T11:31:45;13.60;52.80
25963;DHT22;13760;52.588;13.406;2023-04-06T11:34:35;13.60;53.00
25963;DHT22;13760;52.588;13.406;2023-04-06T11:37:03;13.70;52.30
25963;DHT22;13760;52.588;13.406;2023-04-06T11:39:38;13.70;52.10
25963;DHT22;13760;52.588;13.406;2023-04-06T11:42:03;13.80;52.20
25963;DHT22;13760;52.588;13.406;2023-04-06T11:44:49;13.70;52.60
25963;DHT22;13760;52.588;13.406;2023-04-06T11:47:37;13.80;52.30
25963;DHT22;13760;52.588;13.406;2023-04-06T11:51:08;14.00;51.20
25963;DHT22;13760;52.588;13.406;2023-04-06T11:54:01;14.10;50.40
25963;DHT22;13760;52.588;13.406;2023-04-06T11:56:36;14.00;48.80
25963;DHT22;13760;52.588;13.406;2023-04-06T12:02:49;14.40;50.00
25963;DHT22;13760;52.588;13.406;2023-04-06T12:05:15;14.30;49.00
25963;DHT22;13760;52.588;13.406;2023-04-06T12:07:43;14.50;50.00
25963;DHT22;13760;52.588;13.406;2023-04-06T12:10:09;14.60;49.90
25963;DHT22;13760;52.588;13.406;2023-04-06T12:12:34;14.50;49.10
25963;DHT22;13760;52.588;13.406;2023-04-06T12:15:13;14.60;51.10
25963;DHT22;13760;52.588;13.406;2023-04-06T12:17:39;14.70;50.00
25963;DHT22;13760;52.588;13.406;2023-04-06T12:20:05;14.80;51.10
25963;DHT22;13760;52.588;13.406;2023-04-06T12:22:31;15.00;50.70
25963;DHT22;13760;52.588;13.406;2023-04-06T12:24:56;15.10;50.90
25963;DHT22;13760;52.588;13.406;2023-04-06T12:27:22;15.40;51.50
25963;DHT22;13760;52.588;13.406;2023-04-06T12:29:47;15.60;49.60
25963;DHT22;13760;52.588;13.406;2023-04-06T12:32:13;15.70;47.00
25963;DHT22;13760;52.588;13.406;2023-04-06T12:34:39;15.80;47.30
25963;DHT22;13760;52.588;13.406;2023-04-06T12:37:04;15.80;46.20
25963;DHT22;13760;52.588;13.406;2023-04-06T12:39:30;15.90;47.60
25963;DHT22;13760;52.588;13.406;2023-04-06T12:41:56;16.00;47.80
25963;DHT22;13760;52.588;13.406;2023-04-06T12:44:22;16.10;47.10
25963;DHT22;13760;52.588;13.406;2023-04-06T12:46:48;16.00;45.70
25963;DHT22;13760;52.588;13.406;2023-04-06T12:49:13;15.90;45.50
25963;DHT22;13760;52.588;13.406;2023-04-06T12:51:45;15.80;47.20
25963;DHT22;13760;52.588;13.406;2023-04-06T12:54:11;15.80;46.20
25963;DHT22;13760;52.588;13.406;2023-04-06T12:56:37;15.80;46.20
25963;DHT22;13760;52.588;13.406;2023-04-06T12:59:03;15.80;47.10
25963;DHT22;13760;52.588;13.406;2023-04-06T13:01:28;15.70;46.40
25963;DHT22;13760;52.588;13.406;2023-04-06T13:03:55;15.40;46.40
25963;DHT22;13760;52.588;13.406;2023-04-06T13:06:20;14.80;46.40
25963;DHT22;13760;52.588;13.406;2023-04-06T13:08:47;14.40;47.60
25963;DHT22;13760;52.588;13.406;2023-04-06T13:11:15;14.00;47.60
25963;DHT22;13760;52.588;13.406;2023-04-06T13:13:40;14.00;48.90
25963;DHT22;13760;52.588;13.406;2023-04-06T13:16:09;14.00;48.60
25963;DHT22;13760;52.588;13.406;2023-04-06T13:18:36;13.90;48.30
25963;DHT22;13760;52.588;13.406;2023-04-06T13:21:07;13.80;48.60
25963;DHT22;13760;52.588;13.406;2023-04-06T13:23:33;13.80;48.50
25963;DHT22;13760;52.588;13.406;2023-04-06T13:26:00;13.80;49.10
25963;DHT22;13760;52.588;13.406;2023-04-06T13:28:27;14.10;50.10
25963;DHT22;13760;52.588;13.406;2023-04-06T13:30:53;13.90;47.90
25963;DHT22;13760;52.588;13.406;2023-04-06T13:33:19;13.70;47.80
25963;DHT22;13760;52.588;13.406;2023-04-06T13:35:45;13.60;48.40
25963;DHT22;13760;52.588;13.406;2023-04-06T13:38:11;13.70;49.20
25963;DHT22;13760;52.588;13.406;2023-04-06T13:40:39;13.80;48.10
25963;DHT22;13760;52.588;13.406;2023-04-06T13:43:05;13.90;49.10
25963;DHT22;13760;52.588;13.406;2023-04-06T13:45:31;13.90;50.00
25963;DHT22;13760;52.588;13.406;2023-04-06T13:47:56;14.00;50.80
25963;DHT22;13760;52.588;13.406;2023-04-06T13:50:33;14.00;50.10
25963;DHT22;13760;52.588;13.406;2023-04-06T13:53:02;14.00;50.10
25963;DHT22;13760;52.588;13.406;2023-04-06T13:55:28;13.90;49.00
25963;DHT22;13760;52.588;13.406;2023-04-06T13:57:53;13.80;49.70
25963;DHT22;13760;52.588;13.406;2023-04-06T14:00:20;13.80;50.60
25963;DHT22;13760;52.588;13.406;2023-04-06T14:02:46;13.50;50.20
25963;DHT22;13760;52.588;13.406;2023-04-06T14:05:11;13.40;51.60
25963;DHT22;13760;52.588;13.406;2023-04-06T14:07:37;13.30;51.00
25963;DHT22;13760;52.588;13.406;2023-04-06T14:10:03;13.10;51.50
25963;DHT22;13760;52.588;13.406;2023-04-06T14:12:29;13.10;50.30
25963;DHT22;13760;52.588;13.406;2023-04-06T14:14:55;13.10;51.30
25963;DHT22;13760;52.588;13.406;2023-04-06T14:17:21;13.00;50.20
25963;DHT22;13760;52.588;13.406;2023-04-06T14:19:47;13.00;50.40
25963;DHT22;13760;52.588;13.406;2023-04-06T14:22:12;12.90;49.40
25963;DHT22;13760;52.588;13.406;2023-04-06T14:24:38;12.80;49.80
25963;DHT22;13760;52.588;13.406;2023-04-06T14:27:04;12.80;51.50
25963;DHT22;13760;52.588;13.406;2023-04-06T14:29:29;12.80;52.10
25963;DHT22;13760;52.588;13.406;2023-04-06T14:31:55;12.70;52.40
25963;DHT22;13760;52.588;13.406;2023-04-06T14:34:28;12.60;52.80
25963;DHT22;13760;52.588;13.406;2023-04-06T14:36:54;12.50;52.70
25963;DHT22;13760;52.588;13.406;2023-04-06T14:39:20;12.30;52.40
25963;DHT22;13760;52.588;13.406;2023-04-06T14:41:46;12.20;53.10
25963;DHT22;13760;52.588;13.406;2023-04-06T14:44:15;12.00;53.10
25963;DHT22;13760;52.588;13.406;2023-04-06T14:46:41;11.90;53.70
25963;DHT22;13760;52.588;13.406;2023-04-06T14:49:07;11.80;54.50
25963;DHT22;13760;52.588;13.406;2023-04-06T14:51:34;11.80;55.70
25963;DHT22;13760;52.588;13.406;2023-04-06T14:54:01;11.70;55.50
25963;DHT22;13760;52.588;13.406;2023-04-06T14:56:28;11.70;55.60
25963;DHT22;13760;52.588;13.406;2023-04-06T14:58:57;11.70;55.50
25963;DHT22;13760;52.588;13.406;2023-04-06T15:01:34;11.70;55.70
25963;DHT22;13760;52.588;13.406;2023-04-06T15:04:03;11.60;55.20
25963;DHT22;13760;52.588;13.406;2023-04-06T15:06:29;11.50;54.60
25963;DHT22;13760;52.588;13.406;2023-04-06T15:08:55;11.60;54.20
25963;DHT22;13760;52.588;13.406;2023-04-06T15:11:21;11.60;53.30
25963;DHT22;13760;52.588;13.406;2023-04-06T15:13:47;11.60;53.50
25963;DHT22;13760;52.588;13.406;2023-04-06T15:16:13;11.60;53.00
25963;DHT22;13760;52.588;13.406;2023-04-06T15:18:42;11.50;52.80
25963;DHT22;13760;52.588;13.406;2023-04-06T15:21:11;11.50;53.00
25963;DHT22;13760;52.588;13.406;2023-04-06T15:23:37;11.50;52.90
25963;DHT22;13760;52.588;13.406;2023-04-06T15:26:05;11.50;53.30
25963;DHT22;13760;52.588;13.406;2023-04-06T15:28:34;11.50;53.00
25963;DHT22;13760;52.588;13.406;2023-04-06T15:31:00;11.50;52.90
25963;DHT22;13760;52.588;13.406;2023-04-06T15:33:31;11.50;52.90
25963;DHT22;13760;52.588;13.406;2023-04-06T15:35:56;11.40;53.60
25963;DHT22;13760;52.588;13.406;2023-04-06T15:38:22;11.40;53.50
25963;DHT22;13760;52.588;13.406;2023-04-06T15:40:48;11.30;53.60
25963;DHT22;13760;52.588;13.406;2023-04-06T15:43:16;11.30;53.90
25963;DHT22;13760;52.588;13.406;2023-04-06T15:45:42;11.20;52.80
25963;DHT22;13760;52.588;13.406;2023-04-06T15:48:08;11.20;54.00
25963;DHT22;13760;52.588;13.406;2023-04-06T15:50:34;11.10;56.90
25963;DHT22;13760;52.588;13.406;2023-04-06T15:53:00;11.00;57.10
25963;DHT22;13760;52.588;13.406;2023-04-06T15:55:25;10.90;57.50